Time;durP1;ratioP1;P1;durP2;ratioP2;P2;SDS_P1;SDS_P2;PMS_P1;PMS_P2;Temp;Humidity;BMP_temperature;BMP_pressure;BME280_temperature;BME280_humidity;BME280_pressure;Samples;Min_cycle;Max_cycle;Signal;HPM_P1;HPM_P2
2022/11/18 00:01:17;;;;;;;20.45;12.30;;;;;;;0.86;67.51;98002.63;1788857;80;20968;-46
2022/11/18 00:03:44;;;;;;;20.23;13.00;;;;;;;0.88;67.22;98003.41;1788791;80;20968;-55
2022/11/18 00:06:13;;;;;;;17.10;11.95;;;;;;;0.89;67.53;98007.67;1788691;80;21050;-45
2022/11/18 00:08:39;;;;;;;18.00;10.53;;;;;;;0.87;67.34;98003.01;1788810;80;21014;-48
2022/11/18 00:11:12;;;;;;;15.20;10.53;;;;;;;0.93;67.36;98004.09;1788688;80;21026;-44
2022/11/18 00:16:22;;;;;;;15.23;10.98;;;;;;;0.95;67.60;98003.58;1788781;80;20951;-47
2022/11/18 00:18:48;;;;;;;15.25;10.70;;;;;;;0.86;67.01;97999.58;1788762;80;20960;-47
2022/11/18 00:21:14;;;;;;;15.38;10.60;;;;;;;0.88;67.79;98002.95;1788754;80;20971;-49
2022/11/18 00:23:40;;;;;;;14.70;9.68;;;;;;;0.84;67.65;98003.14;1788745;80;21018;-50
2022/11/18 00:26:11;;;;;;;15.05;9.83;;;;;;;0.88;67.38;97999.08;1788795;80;20979;-50
2022/11/18 00:28:37;;;;;;;14.45;9.83;;;;;;;0.86;67.24;97996.16;1788119;79;20975;-47
2022/11/18 00:31:08;;;;;;;13.50;9.45;;;;;;;0.83;67.57;97998.39;1788755;80;20960;-52
2022/11/18 00:33:35;;;;;;;14.85;10.20;;;;;;;0.79;67.21;98003.30;1788761;80;20987;-50
2022/11/18 00:36:02;;;;;;;11.60;9.45;;;;;;;0.80;66.69;98002.84;1788909;80;21398;-43
2022/11/18 00:38:29;;;;;;;12.45;9.43;;;;;;;0.71;66.28;98012.64;1788986;80;21492;-52
2022/11/18 00:41:01;;;;;;;16.20;9.40;;;;;;;0.68;66.60;98012.73;1788855;80;21026;-47
2022/11/18 00:43:28;;;;;;;10.95;8.90;;;;;;;0.66;66.27;98008.53;1788460;79;21490;-50
2022/11/18 00:45:54;;;;;;;11.80;9.07;;;;;;;0.62;66.34;98012.97;1789028;80;21043;-52
2022/11/18 00:48:21;;;;;;;11.43;8.23;;;;;;;0.60;66.38;98008.30;1788646;80;21014;-50
2022/11/18 00:50:52;;;;;;;12.28;9.20;;;;;;;0.60;65.68;98002.27;1789027;80;21353;-46
2022/11/18 00:53:19;;;;;;;13.90;9.63;;;;;;;0.41;65.59;97998.20;1788700;80;20979;-52
2022/11/18 00:55:45;;;;;;;13.93;10.00;;;;;;;0.42;66.58;97995.56;1790888;80;21441;-52
2022/11/18 00:58:13;;;;;;;13.35;10.15;;;;;;;0.48;66.71;98002.27;1788717;80;20983;-50
2022/11/18 01:00:44;;;;;;;15.83;10.80;;;;;;;0.47;67.01;98005.27;1788789;80;20979;-42
2022/11/18 01:03:12;;;;;;;15.23;9.90;;;;;;;0.48;66.92;98014.73;1788735;80;20999;-45
2022/11/18 01:05:38;;;;;;;12.68;9.35;;;;;;;0.53;66.90;98012.84;1788874;80;20995;-54
2022/11/18 01:08:07;;;;;;;13.73;9.87;;;;;;;0.62;67.08;98010.38;1788949;80;21010;-51
2022/11/18 01:10:34;;;;;;;14.68;9.73;;;;;;;0.61;66.87;98012.56;1788960;80;20983;-50
2022/11/18 01:13:18;;;;;;;14.15;9.95;;;;;;;0.61;66.93;98013.85;1788877;80;20975;-47
2022/11/18 01:15:51;;;;;;;15.95;9.35;;;;;;;0.58;66.65;98013.95;1788771;80;20991;-46
2022/11/18 01:18:21;;;;;;;12.03;9.40;;;;;;;0.64;66.97;98021.52;1788717;80;20995;-49
2022/11/18 01:20:47;;;;;;;13.05;9.75;;;;;;;0.63;66.66;98026.28;1788641;80;20987;-47
2022/11/18 01:23:15;;;;;;;11.80;8.78;;;;;;;0.73;66.98;98021.19;1788692;80;21459;-43
2022/11/18 01:25:43;;;;;;;12.50;9.38;;;;;;;0.70;66.62;98022.58;1788875;80;21021;-47
2022/11/18 01:28:10;;;;;;;11.85;9.03;;;;;;;0.71;65.86;98026.00;1788716;80;21050;-52
2022/11/18 01:30:37;;;;;;;13.68;8.60;;;;;;;0.64;64.88;98030.57;1788814;80;20975;-45
2022/11/18 01:33:04;;;;;;;;;;;;;;;0.65;65.36;98030.95;1791372;80;21026;-46
2022/11/18 01:35:42;;;;;;;12.73;8.55;;;;;;;0.56;64.59;98033.44;1788825;80;20104;-48
2022/11/18 01:38:12;;;;;;;12.85;8.80;;;;;;;0.63;65.77;98028.03;1788697;80;20960;-49
2022/11/18 01:40:38;;;;;;;12.15;8.45;;;;;;;0.57;64.86;98032.98;1788694;80;20987;-44
2022/11/18 01:43:14;;;;;;;9.85;8.20;;;;;;;0.56;65.24;98036.45;1788671;80;20999;-46
2022/11/18 01:45:43;;;;;;;14.07;9.48;;;;;;;0.54;64.50;98033.08;1788533;80;20951;-45
2022/11/18 01:48:23;;;;;;;11.03;8.68;;;;;;;0.51;65.00;98030.16;1790954;80;21420;-43
2022/11/18 01:51:00;;;;;;;12.88;9.15;;;;;;;0.51;65.59;98025.41;1794557;80;21471;-49
2022/11/18 01:53:30;;;;;;;11.30;8.88;;;;;;;0.50;65.21;98028.91;1794706;80;21468;-53
2022/11/18 01:56:01;;;;;;;11.45;8.35;;;;;;;0.57;65.89;98031.69;1793125;80;21027;-49
2022/11/18 01:58:35;;;;;;;10.93;8.98;;;;;;;0.61;65.67;98029.83;1794619;80;20979;-47
2022/11/18 02:01:03;;;;;;;15.85;9.33;;;;;;;0.60;66.21;98030.30;1794569;80;20990;-47
2022/11/18 02:03:29;;;;;;;14.25;9.03;;;;;;;0.67;66.24;98031.73;1794567;80;20959;-46
2022/11/18 02:05:55;;;;;;;12.07;8.95;;;;;;;0.67;65.64;98018.80;1794571;80;21014;-50
2022/11/18 02:08:22;;;;;;;13.38;9.18;;;;;;;0.66;65.34;98017.59;1794481;80;21021;-50
2022/11/18 02:10:48;;;;;;;10.43;8.50;;;;;;;0.64;64.59;98022.81;1794770;80;21030;-45
2022/11/18 02:13:14;;;;;;;13.38;9.43;;;;;;;0.64;65.24;98012.89;1794512;80;20987;-53
2022/11/18 02:15:48;;;;;;;14.20;9.25;;;;;;;0.64;65.16;98003.41;1794789;80;20982;-46
2022/11/18 02:18:25;;;;;;;14.13;8.93;;;;;;;0.61;64.56;98008.68;1784957;80;20970;-43
2022/11/18 02:20:59;;;;;;;13.48;9.28;;;;;;;0.62;64.48;98010.38;1794697;80;21017;-43
2022/11/18 02:23:34;;;;;;;11.70;8.45;;;;;;;0.57;63.88;98021.33;1791688;80;20986;-53
2022/11/18 02:26:26;;;;;;;12.23;9.53;;;;;;;0.56;64.47;98014.03;1794510;80;20959;-50
2022/11/18 02:29:06;;;;;;;12.30;8.85;;;;;;;0.55;65.04;98015.38;1793898;80;21030;-50
2022/11/18 02:32:01;;;;;;;12.53;9.18;;;;;;;0.56;65.23;98013.16;1794529;80;21535;-51
2022/11/18 02:34:56;;;;;;;10.32;8.65;;;;;;;0.56;64.71;98013.16;1794534;80;21516;-50
2022/11/18 02:37:57;;;;;;;11.12;8.60;;;;;;;0.55;64.58;98014.08;1793665;80;21429;-53
2022/11/18 02:43:46;;;;;;;10.90;8.40;;;;;;;0.66;64.82;97999.02;1818620;79;22872;-40
2022/11/18 02:46:17;;;;;;;12.85;8.25;;;;;;;0.63;63.94;97993.94;1792889;80;21007;-39
2022/11/18 02:48:47;;;;;;;11.25;8.65;;;;;;;0.62;63.99;97982.34;1791282;80;21491;-38
2022/11/18 02:51:19;;;;;;;12.13;8.60;;;;;;;0.57;63.94;97976.90;1793014;80;20963;-40
2022/11/18 02:53:47;;;;;;;15.80;8.98;;;;;;;0.51;62.78;97984.89;1793023;80;20963;-36
2022/11/18 02:56:16;;;;;;;11.95;8.38;;;;;;;0.51;63.07;97977.13;1792995;80;21007;-39
2022/11/18 02:58:42;;;;;;;10.43;8.20;;;;;;;0.52;63.31;97975.38;1792956;80;21002;-39
2022/11/18 03:01:19;;;;;;;11.22;8.05;;;;;;;0.54;62.97;97979.59;1793028;80;21527;-40
2022/11/18 03:03:45;;;;;;;13.72;8.73;;;;;;;0.54;63.20;97978.75;1793207;80;20979;-39
2022/11/18 03:06:37;;;;;;;11.95;8.18;;;;;;;0.55;63.69;97979.16;1793244;80;21030;-39
2022/11/18 03:09:17;;;;;;;13.60;9.05;;;;;;;0.56;63.09;97976.95;1792928;80;21386;-38
2022/11/18 03:12:13;;;;;;;16.82;10.23;;;;;;;0.59;62.63;97972.13;1792941;80;21550;-40
2022/11/18 03:14:58;;;;;;;12.80;9.73;;;;;;;0.57;62.75;97967.84;1792991;80;21043;-41
2022/11/18 03:18:07;;;;;;;16.17;10.82;;;;;;;0.54;62.73;97972.28;1792541;80;21025;-37
2022/11/18 03:20:41;;;;;;;18.35;11.90;;;;;;;0.53;63.29;97971.45;1792406;80;20994;-39
2022/11/18 03:23:22;;;;;;;16.00;11.00;;;;;;;0.49;62.72;97966.42;1739374;80;21014;-37
2022/11/18 03:26:06;;;;;;;14.87;10.68;;;;;;;0.49;62.81;97969.02;1792362;80;21538;-36
2022/11/18 03:28:40;;;;;;;16.77;11.18;;;;;;;0.47;62.99;97972.11;1792906;80;20998;-40
2022/11/18 03:31:26;;;;;;;16.17;11.28;;;;;;;0.46;62.66;97970.44;1792921;80;20979;-38
2022/11/18 03:33:56;;;;;;;16.65;12.30;;;;;;;0.42;62.89;97972.72;1792893;80;20967;-39
2022/11/18 03:36:26;;;;;;;17.60;12.35;;;;;;;0.41;63.28;97966.70;1792806;80;20967;-39
2022/11/18 03:38:56;;;;;;;15.58;11.28;;;;;;;0.46;63.52;97967.85;1792878;80;20987;-35
2022/11/18 03:41:25;;;;;;;18.10;11.45;;;;;;;0.57;63.98;97964.42;1791971;80;20994;-37
2022/11/18 03:44:15;;;;;;;16.20;11.20;;;;;;;0.55;63.86;97959.30;1779339;81;21042;-38
2022/11/18 03:46:45;;;;;;;17.27;10.78;;;;;;;0.55;63.59;97958.47;1779270;80;21631;-40
2022/11/18 03:49:19;;;;;;;14.35;10.05;;;;;;;0.52;63.33;97963.28;1779360;81;20971;-38
2022/11/18 03:51:51;;;;;;;14.63;10.15;;;;;;;0.51;63.21;97956.44;1779486;81;21034;-40
2022/11/18 03:54:25;;;;;;;15.58;10.23;;;;;;;0.33;63.17;97957.09;1752119;81;20996;-37
2022/11/18 03:57:06;;;;;;;15.18;10.53;;;;;;;0.27;63.28;97960.72;1778865;81;21426;-36
2022/11/18 03:59:48;;;;;;;16.62;10.65;;;;;;;0.29;63.10;97955.07;1777393;80;20999;-38
2022/11/18 04:02:24;;;;;;;13.38;10.05;;;;;;;0.32;63.03;97949.77;1778821;81;21007;-36
2022/11/18 04:04:53;;;;;;;15.58;10.70;;;;;;;0.32;62.78;97953.65;1778815;81;21042;-36
2022/11/18 04:07:32;;;;;;;13.93;11.20;;;;;;;0.32;63.09;97951.06;1778786;80;20972;-39
2022/11/18 04:10:09;;;;;;;20.20;12.23;;;;;;;0.32;63.12;97956.23;1756839;81;21003;-40
2022/11/18 04:12:39;;;;;;;;;;;;;;;0.31;63.40;97949.39;1781176;81;21504;-38
2022/11/18 04:15:05;;;;;;;16.20;11.53;;;;;;;0.28;63.07;97958.55;1778857;81;20412;-40
2022/11/18 04:17:31;;;;;;;15.50;11.25;;;;;;;0.36;63.57;97947.49;1779076;81;20995;-39
2022/11/18 04:19:57;;;;;;;16.82;11.65;;;;;;;0.30;62.75;97941.69;1778734;80;20988;-38
2022/11/18 04:22:23;;;;;;;15.85;11.28;;;;;;;0.19;62.77;97936.44;1778870;80;21583;-40
2022/11/18 04:24:48;;;;;;;15.70;10.20;;;;;;;0.19;63.00;97937.72;1778844;81;21480;-42
2022/11/18 04:27:14;;;;;;;13.85;10.85;;;;;;;0.17;62.84;97930.94;1778795;81;21418;-40
2022/11/18 04:29:40;;;;;;;17.17;11.28;;;;;;;0.14;63.21;97929.73;1778777;81;21002;-37
2022/11/18 04:32:06;;;;;;;16.97;11.55;;;;;;;0.20;63.78;97928.25;1778798;81;21413;-38
2022/11/18 04:34:32;;;;;;;18.45;13.35;;;;;;;0.20;63.78;97928.25;1778860;81;21503;-36
2022/11/18 04:36:58;;;;;;;23.85;15.40;;;;;;;0.21;63.33;97929.92;1778779;81;21043;-38
2022/11/18 04:39:24;;;;;;;22.30;14.58;;;;;;;0.20;63.54;97926.95;1778981;81;21018;-41
2022/11/18 04:41:56;;;;;;;23.60;16.25;;;;;;;0.21;63.77;97927.33;1778592;80;21011;-36
2022/11/18 04:44:32;;;;;;;24.32;15.90;;;;;;;0.21;63.29;97934.25;1778773;81;21039;-39
2022/11/18 04:47:02;;;;;;;27.58;17.92;;;;;;;0.18;63.52;97930.02;1778072;81;21046;-40
2022/11/18 04:49:29;;;;;;;24.63;16.67;;;;;;;0.17;63.46;97930.94;1778682;81;21515;-38
2022/11/18 04:51:55;;;;;;;29.50;18.85;;;;;;;0.21;63.95;97923.91;1778869;81;21499;-40
2022/11/18 04:54:22;;;;;;;23.63;17.10;;;;;;;0.18;64.01;97925.71;1779026;81;20983;-40
2022/11/18 04:56:48;;;;;;;24.43;16.90;;;;;;;0.21;64.03;97912.28;1778747;81;20999;-40
2022/11/18 04:59:17;;;;;;;28.80;17.62;;;;;;;0.21;64.06;97929.08;1778747;81;21002;-39
2022/11/18 05:01:43;;;;;;;25.57;17.25;;;;;;;0.22;64.11;97930.33;1778661;81;20999;-39
2022/11/18 05:04:14;;;;;;;21.20;15.28;;;;;;;0.22;64.29;97935.50;1778712;81;21029;-36
2022/11/18 05:06:40;;;;;;;23.35;15.48;;;;;;;0.27;64.60;97934.02;1777330;81;21490;-38
2022/11/18 05:09:06;;;;;;;22.67;15.50;;;;;;;0.24;64.79;97934.13;1778733;81;21018;-39
2022/11/18 05:14:16;;;;;;;22.48;15.40;;;;;;;0.25;64.84;97930.20;1778701;81;21007;-37
2022/11/18 05:16:42;;;;;;;27.42;15.75;;;;;;;0.13;65.66;97931.95;1778828;81;21535;-40
2022/11/18 05:19:08;;;;;;;28.38;15.38;;;;;;;0.18;66.00;97932.17;1778728;81;21034;-36
2022/11/18 05:21:34;;;;;;;27.20;15.10;;;;;;;0.13;66.35;97934.53;1778686;81;21063;-36
2022/11/18 05:24:01;;;;;;;25.30;15.63;;;;;;;0.17;66.20;97933.52;1778714;81;21046;-39
2022/11/18 05:26:27;;;;;;;26.82;16.30;;;;;;;0.15;66.65;97932.73;1778851;81;21513;-47
2022/11/18 05:28:53;;;;;;;24.67;15.08;;;;;;;0.18;66.65;97936.05;1779053;80;21050;-39
2022/11/18 05:31:19;;;;;;;24.98;16.00;;;;;;;0.21;66.72;97937.67;1778680;81;21033;-36
2022/11/18 05:33:45;;;;;;;27.50;15.98;;;;;;;0.25;66.97;97936.66;1778731;81;20998;-42
2022/11/18 05:36:14;;;;;;;25.82;16.48;;;;;;;0.29;66.86;97927.92;1778696;81;20999;-38
2022/11/18 05:38:41;;;;;;;30.17;16.75;;;;;;;0.33;66.88;97928.66;1778693;81;21015;-39
2022/11/18 05:41:07;;;;;;;23.25;16.17;;;;;;;0.32;66.83;97930.38;1778797;81;21010;-41
2022/11/18 05:43:35;;;;;;;24.00;16.00;;;;;;;0.29;67.27;97930.94;1784801;80;21063;-38
2022/11/18 05:46:01;;;;;;;27.40;16.05;;;;;;;0.14;67.52;97941.38;1787160;80;20990;-38
2022/11/18 05:48:27;;;;;;;28.32;16.12;;;;;;;0.05;67.56;97944.28;1787048;80;20990;-36
2022/11/18 05:50:54;;;;;;;33.75;20.08;;;;;;;0.07;67.56;97947.65;1786988;80;20999;-40
2022/11/18 05:53:23;;;;;;;33.90;20.43;;;;;;;-0.02;68.39;97950.95;1787141;80;21511;-36
2022/11/18 05:56:22;;;;;;;34.25;22.55;;;;;;;0.02;68.76;97948.25;1786971;80;21508;-38
2022/11/18 05:58:48;;;;;;;31.65;19.45;;;;;;;0.06;68.95;97956.31;1786979;80;21006;-36
2022/11/18 06:01:31;;;;;;;36.05;21.23;;;;;;;0.10;68.92;97960.02;1786939;80;20981;-40
2022/11/18 06:03:58;;;;;;;27.75;17.02;;;;;;;0.10;68.92;97960.02;1786989;80;21002;-37
2022/11/18 06:06:24;;;;;;;30.55;17.87;;;;;;;0.06;69.26;97966.66;1787121;80;21178;-38
2022/11/18 06:09:03;;;;;;;25.68;16.02;;;;;;;0.05;69.31;97974.00;1787277;80;21460;-39
2022/11/18 06:11:37;;;;;;;27.70;16.93;;;;;;;0.01;69.27;97967.25;1786962;80;20998;-39
2022/11/18 06:14:14;;;;;;;25.12;16.37;;;;;;;-0.05;70.25;97967.85;1787022;80;21625;-41
2022/11/18 06:16:48;;;;;;;30.10;16.15;;;;;;;-0.03;71.15;97975.56;1787032;80;20994;-37
2022/11/18 06:19:15;;;;;;;24.12;16.55;;;;;;;0.01;70.93;97986.64;1786996;80;21007;-38
2022/11/18 06:21:43;;;;;;;26.40;16.85;;;;;;;0.01;71.65;97986.64;1787149;80;21038;-38
2022/11/18 06:24:09;;;;;;;27.10;15.72;;;;;;;0.07;72.02;97987.71;1787098;80;20987;-36
2022/11/18 06:26:36;;;;;;;22.90;14.90;;;;;;;0.05;73.33;97997.27;1787145;80;20959;-40
2022/11/18 06:29:03;;;;;;;;;;;;;;;0.11;71.82;98000.92;1789664;80;21440;-39
2022/11/18 06:31:28;;;;;;;24.10;14.27;;;;;;;-0.03;72.24;98009.99;1787290;80;20120;-39
2022/11/18 06:33:54;;;;;;;24.37;14.55;;;;;;;-0.04;73.01;98003.16;1787107;80;21472;-39
2022/11/18 06:36:20;;;;;;;23.00;15.18;;;;;;;-0.06;73.06;98012.66;1787090;80;21464;-39
2022/11/18 06:38:45;;;;;;;23.73;14.18;;;;;;;-0.03;72.99;98015.62;1787038;80;21421;-39
2022/11/18 06:41:11;;;;;;;23.45;13.68;;;;;;;-0.02;72.49;98014.70;1786908;80;20994;-40
2022/11/18 06:43:37;;;;;;;23.57;14.98;;;;;;;0.03;72.53;98011.52;1781400;80;21003;-39
2022/11/18 06:48:50;;;;;;;22.05;12.40;;;;;;;0.05;72.87;98021.36;1776611;81;21409;-37
2022/11/18 06:51:20;;;;;;;20.62;12.15;;;;;;;0.06;71.96;98015.77;1778667;80;21535;-42
2022/11/18 06:53:44;;;;;;;22.13;11.53;;;;;;;0.04;72.08;98020.98;1777727;80;20952;-44
2022/11/18 06:56:13;;;;;;;20.92;10.68;;;;;;;0.12;72.00;98025.44;1750286;80;20987;-37
2022/11/18 06:58:39;;;;;;;13.78;9.60;;;;;;;0.14;71.52;98013.75;1739284;82;21015;-47
2022/11/18 07:01:13;;;;;;;21.90;11.48;;;;;;;0.15;71.13;98017.59;1739522;82;21012;-42
2022/11/18 07:03:44;;;;;;;15.72;10.90;;;;;;;0.23;71.37;98021.20;1739090;82;20980;-40
2022/11/18 07:06:12;;;;;;;17.27;11.00;;;;;;;0.27;70.66;98024.06;1739600;82;20984;-44
2022/11/18 07:08:40;;;;;;;16.82;10.50;;;;;;;0.25;70.36;98012.94;1739503;82;21525;-44
2022/11/18 07:11:10;;;;;;;16.27;10.08;;;;;;;0.27;70.19;98020.19;1739404;81;21036;-46
2022/11/18 07:13:36;;;;;;;17.02;10.05;;;;;;;0.18;70.02;98020.50;1739526;82;21019;-43
2022/11/18 07:16:09;;;;;;;15.93;9.53;;;;;;;0.18;70.08;98017.91;1739635;82;20957;-44
2022/11/18 07:18:36;;;;;;;14.45;10.18;;;;;;;0.17;69.91;98021.41;1739388;82;20982;-44
2022/11/18 07:21:09;;;;;;;17.40;10.08;;;;;;;0.04;70.17;98022.27;1739522;82;20980;-40
2022/11/18 07:23:35;;;;;;;17.98;11.10;;;;;;;0.09;70.04;98031.16;1739344;82;20972;-44
2022/11/18 07:26:01;;;;;;;15.45;11.08;;;;;;;0.00;70.67;98034.91;1739340;82;21469;-43
2022/11/18 07:28:28;;;;;;;17.65;11.65;;;;;;;-0.01;71.09;98030.16;1739677;82;21477;-43
2022/11/18 07:31:06;;;;;;;20.50;11.45;;;;;;;0.08;71.32;98033.36;1739970;81;20991;-43
2022/11/18 07:33:32;;;;;;;21.48;12.45;;;;;;;0.07;71.14;98035.53;1739637;81;20991;-44
2022/11/18 07:36:06;;;;;;;19.63;12.30;;;;;;;0.05;71.63;98031.70;1739980;82;21587;-42
2022/11/18 07:38:32;;;;;;;17.55;12.40;;;;;;;0.13;71.17;98039.23;1738971;82;20964;-47
2022/11/18 07:41:16;;;;;;;21.05;12.05;;;;;;;0.11;71.73;98040.98;1739510;82;20972;-37
2022/11/18 07:43:43;;;;;;;14.60;10.43;;;;;;;-0.13;72.16;98044.77;1741738;81;21512;-40
2022/11/18 07:46:34;;;;;;;22.20;12.30;;;;;;;-0.13;71.63;98042.64;1747834;81;20998;-43
2022/11/18 07:49:03;;;;;;;18.35;11.83;;;;;;;-0.19;71.87;98038.52;1747876;81;20984;-42
2022/11/18 07:51:33;;;;;;;24.40;12.47;;;;;;;-0.14;72.19;98045.68;1747820;81;21023;-45
2022/11/18 07:53:59;;;;;;;17.82;11.75;;;;;;;-0.11;72.07;98043.01;1747728;81;21026;-43
2022/11/18 07:56:26;;;;;;;21.37;11.48;;;;;;;-0.09;72.46;98038.63;1747811;81;21022;-41
2022/11/18 07:58:53;;;;;;;19.73;11.18;;;;;;;-0.02;72.81;98044.42;1765909;80;20998;-39
2022/11/18 08:01:23;;;;;;;18.77;11.05;;;;;;;0.01;72.53;98041.75;1784013;80;21070;-38
2022/11/18 08:03:50;;;;;;;13.78;8.43;;;;;;;0.09;72.17;98041.49;1782243;80;21027;-43
2022/11/18 08:06:18;;;;;;;14.63;8.95;;;;;;;0.05;71.46;98044.63;1782709;80;21075;-49
2022/11/18 08:08:46;;;;;;;9.60;6.10;;;;;;;-0.03;71.64;98043.59;1784234;80;20995;-44
2022/11/18 08:11:17;;;;;;;8.08;4.72;;;;;;;-0.07;70.25;98043.75;1784326;80;20991;-41
2022/11/18 08:13:43;;;;;;;6.42;4.90;;;;;;;-0.12;70.45;98041.30;1782058;80;20963;-43
2022/11/18 08:16:23;;;;;;;9.63;5.83;;;;;;;-0.13;69.51;98043.94;1784313;80;21378;-42
2022/11/18 08:18:49;;;;;;;10.18;5.55;;;;;;;-0.07;69.44;98044.59;1784179;80;20959;-47
2022/11/18 08:21:18;;;;;;;10.07;5.90;;;;;;;-0.01;69.43;98046.96;1784531;80;21649;-44
2022/11/18 08:23:51;;;;;;;5.83;4.50;;;;;;;0.02;69.47;98042.59;1784264;80;21712;-45
2022/11/18 08:26:16;;;;;;;7.67;5.28;;;;;;;-0.03;68.59;98047.47;1783638;80;20963;-45
2022/11/18 08:28:43;;;;;;;9.83;6.37;;;;;;;-0.07;68.61;98042.01;1784141;80;21039;-40
2022/11/18 08:31:17;;;;;;;10.82;5.97;;;;;;;-0.05;69.16;98041.50;1784425;80;20979;-37
2022/11/18 08:33:43;;;;;;;7.75;5.33;;;;;;;0.01;68.66;98046.08;1784099;80;21452;-43
2022/11/18 08:36:18;;;;;;;7.92;5.70;;;;;;;-0.02;68.13;98054.77;1784384;80;20980;-44
2022/11/18 08:38:44;;;;;;;14.95;8.28;;;;;;;-0.14;68.25;98045.68;1784510;80;21027;-41
2022/11/18 08:41:14;;;;;;;11.22;7.40;;;;;;;-0.11;68.43;98040.42;1784096;80;21531;-44
2022/11/18 08:43:39;;;;;;;10.55;6.00;;;;;;;-0.06;68.55;98037.67;1781706;80;21022;-42
2022/11/18 08:46:08;;;;;;;11.63;6.60;;;;;;;-0.09;68.36;98039.05;1778920;80;20960;-46
2022/11/18 08:48:34;;;;;;;17.87;11.95;;;;;;;-0.02;68.47;98036.67;1778604;81;21027;-39
2022/11/18 08:51:00;;;;;;;10.15;6.83;;;;;;;-0.04;68.24;98039.76;1778653;81;20979;-40
2022/11/18 08:53:26;;;;;;;10.25;6.85;;;;;;;-0.04;67.91;98035.88;1778683;80;21022;-41
2022/11/18 08:55:57;;;;;;;11.30;7.00;;;;;;;0.02;67.78;98046.46;1777908;80;21575;-44
2022/11/18 08:58:24;;;;;;;12.28;7.30;;;;;;;0.03;67.14;98050.75;1778754;81;21354;-46
2022/11/18 09:00:50;;;;;;;7.37;5.85;;;;;;;0.09;67.53;98047.95;1778909;81;21425;-42
2022/11/18 09:03:16;;;;;;;12.90;6.47;;;;;;;0.15;67.45;98051.65;1778475;80;20987;-46
2022/11/18 09:05:42;;;;;;;18.30;13.15;;;;;;;0.19;67.30;98053.23;1778638;81;21019;-43
2022/11/18 09:08:07;;;;;;;33.73;23.22;;;;;;;0.15;66.66;98060.70;1778614;80;21080;-41
2022/11/18 09:10:33;;;;;;;21.23;16.48;;;;;;;0.13;65.58;98059.45;1778627;80;21039;-44
2022/11/18 09:13:00;;;;;;;13.08;9.03;;;;;;;0.25;66.12;98056.89;1778718;81;21010;-39
2022/11/18 09:15:26;;;;;;;7.12;5.17;;;;;;;0.23;65.62;98057.39;1777997;81;21433;-47
2022/11/18 09:17:52;;;;;;;11.80;9.50;;;;;;;-0.25;61.97;98054.23;1777708;81;20959;-38
2022/11/18 09:20:18;;;;;;;11.70;6.83;;;;;;;-0.01;63.11;98049.55;1778746;81;20956;-43
2022/11/18 09:22:44;;;;;;;6.60;4.75;;;;;;;0.13;64.59;98046.52;1778647;81;21019;-43
2022/11/18 09:25:10;;;;;;;5.67;4.05;;;;;;;0.25;63.74;98047.00;1778598;81;21023;-43
2022/11/18 09:27:35;;;;;;;4.83;3.27;;;;;;;0.36;63.52;98050.94;1778765;81;20984;-42
2022/11/18 09:30:01;;;;;;;7.33;3.77;;;;;;;0.41;62.33;98052.52;1778647;81;20992;-38
2022/11/18 09:32:27;;;;;;;5.87;4.00;;;;;;;0.49;62.38;98046.61;1778734;81;20980;-38
2022/11/18 09:34:53;;;;;;;5.12;3.50;;;;;;;0.56;61.86;98039.03;1778876;81;20956;-39
2022/11/18 09:37:18;;;;;;;10.85;3.47;;;;;;;0.61;61.32;98047.48;1777871;81;21028;-41
2022/11/18 09:39:44;;;;;;;5.10;3.95;;;;;;;0.59;61.59;98044.11;1774304;81;21011;-39
2022/11/18 09:42:24;;;;;;;9.73;3.40;;;;;;;0.53;61.16;98043.88;1778611;81;21038;-40
2022/11/18 09:45:24;;;;;;;7.05;4.92;;;;;;;0.51;60.08;98047.40;1776155;80;21042;-40
2022/11/18 09:47:50;;;;;;;8.25;4.30;;;;;;;0.52;59.17;98037.46;1786951;80;20971;-40
2022/11/18 09:50:21;;;;;;;7.03;4.42;;;;;;;0.52;60.31;98034.87;1787188;80;20963;-39
2022/11/18 09:53:20;;;;;;;5.12;4.12;;;;;;;0.55;59.54;98036.07;1786874;80;21468;-36
2022/11/18 09:55:48;;;;;;;8.28;5.12;;;;;;;0.64;60.26;98037.03;1789435;80;20980;-40
2022/11/18 09:58:35;;;;;;;5.03;3.77;;;;;;;0.66;61.00;98030.06;1789586;80;20985;-38
2022/11/18 10:01:03;;;;;;;6.05;4.47;;;;;;;0.69;59.99;98035.56;1789595;80;20996;-38
2022/11/18 10:03:30;;;;;;;;;;;;;;;0.68;59.21;98037.31;1792176;80;21074;-38
2022/11/18 10:06:28;;;;;;;5.35;4.22;;;;;;;0.74;60.56;98035.80;1789467;80;20135;-40
2022/11/18 10:09:21;;;;;;;13.62;5.30;;;;;;;0.72;59.90;98035.47;1789515;80;21459;-41
2022/11/18 10:12:14;;;;;;;6.80;5.20;;;;;;;0.80;60.93;98032.17;1789455;80;20992;-41
2022/11/18 10:15:15;;;;;;;11.18;4.90;;;;;;;0.81;60.40;98035.13;1789727;80;21001;-40
2022/11/18 10:18:07;;;;;;;8.68;5.17;;;;;;;0.85;60.25;98044.92;1788753;80;21044;-38
2022/11/18 10:20:48;;;;;;;8.10;4.70;;;;;;;0.83;59.19;98045.44;1789464;80;21710;-40
2022/11/18 10:23:45;;;;;;;5.28;4.15;;;;;;;0.74;60.38;98044.85;1789472;80;21008;-41
2022/11/18 10:26:11;;;;;;;8.48;4.92;;;;;;;0.73;60.01;98045.77;1760695;81;21014;-41
2022/11/18 10:28:37;;;;;;;6.78;5.12;;;;;;;0.77;60.48;98049.09;1760526;81;20978;-40
2022/11/18 10:31:10;;;;;;;8.05;5.12;;;;;;;0.88;60.50;98048.70;1718071;83;21444;-38
2022/11/18 10:33:37;;;;;;;5.60;4.00;;;;;;;0.98;60.32;98046.16;1718027;83;20950;-40
2022/11/18 10:36:26;;;;;;;5.67;4.00;;;;;;;0.96;58.86;98046.67;1718202;83;21008;-39
2022/11/18 10:39:12;;;;;;;6.47;4.15;;;;;;;1.05;59.76;98041.16;1718042;83;21017;-40
2022/11/18 10:41:51;;;;;;;8.73;4.92;;;;;;;1.07;58.36;98043.69;1717005;83;21550;-40
2022/11/18 10:44:38;;;;;;;8.88;4.97;;;;;;;1.12;59.41;98045.66;1708816;82;21506;-38
2022/11/18 10:47:29;;;;;;;10.78;6.03;;;;;;;1.15;58.84;98041.67;1701712;82;21694;-40
2022/11/18 10:50:00;;;;;;;14.85;6.95;;;;;;;1.23;59.58;98047.86;1709259;82;21030;-38
2022/11/18 10:52:28;;;;;;;15.72;7.10;;;;;;;1.17;59.28;98050.69;1699946;82;21472;-39
2022/11/18 10:55:15;;;;;;;13.75;7.37;;;;;;;1.01;59.39;98050.41;1730363;82;20980;-41
2022/11/18 10:57:42;;;;;;;13.53;6.70;;;;;;;1.01;59.59;98047.81;1697881;84;20953;-39
2022/11/18 11:00:37;;;;;;;13.85;8.03;;;;;;;1.01;58.98;98044.77;1718446;82;20986;-38
2022/11/18 11:03:31;;;;;;;13.30;6.67;;;;;;;1.10;59.00;98050.06;1661531;85;21042;-41
2022/11/18 11:06:29;;;;;;;8.63;5.25;;;;;;;1.17;58.89;98052.81;1666595;86;21191;-38
2022/11/18 11:09:00;;;;;;;10.93;5.12;;;;;;;1.12;59.62;98056.02;1666576;85;21018;-41
2022/11/18 11:11:31;;;;;;;10.75;5.35;;;;;;;1.08;58.87;98060.47;1666562;86;21031;-38
2022/11/18 11:14:23;;;;;;;6.78;5.40;;;;;;;1.10;57.71;98065.14;1665953;86;21699;-42
2022/11/18 11:17:12;;;;;;;14.58;5.90;;;;;;;1.11;58.80;98064.25;1664797;86;21084;-37
2022/11/18 11:20:07;;;;;;;8.05;5.08;;;;;;;1.22;58.62;98072.05;1663429;86;21506;-41
2022/11/18 11:22:33;;;;;;;8.85;5.70;;;;;;;1.33;58.57;98073.81;1660337;86;21071;-37
2022/11/18 11:24:59;;;;;;;11.63;6.97;;;;;;;1.41;57.83;98079.54;1659304;86;21045;-37
2022/11/18 11:28:00;;;;;;;10.75;5.62;;;;;;;1.40;56.83;98079.16;1662952;85;21104;-38
2022/11/18 11:30:26;;;;;;;15.55;9.48;;;;;;;1.42;58.23;98082.54;1659006;86;21052;-39
2022/11/18 11:33:38;;;;;;;16.77;8.68;;;;;;;1.41;57.61;98079.54;1658895;83;21037;-38
2022/11/18 11:36:27;;;;;;;16.62;8.05;;;;;;;1.36;57.77;98079.32;1724146;83;20966;-41
2022/11/18 11:39:38;;;;;;;12.70;6.42;;;;;;;1.34;57.71;98079.38;1727477;83;21017;-40
2022/11/18 11:42:35;;;;;;;7.97;4.35;;;;;;;1.32;57.30;98083.77;1748227;82;21049;-40
2022/11/18 11:45:15;;;;;;;7.08;4.00;;;;;;;1.28;56.80;98085.63;1745822;80;21500;-42
2022/11/18 11:48:05;;;;;;;7.55;4.72;;;;;;;1.25;56.60;98089.62;1748505;80;21476;-38
2022/11/18 11:50:53;;;;;;;9.78;5.87;;;;;;;1.25;56.86;98084.89;1752660;82;21120;-41
2022/11/18 11:53:43;;;;;;;8.35;5.45;;;;;;;1.27;57.83;98085.69;1751856;82;20975;-41
2022/11/18 11:56:55;;;;;;;13.60;7.25;;;;;;;1.30;57.90;98082.98;1729689;82;21587;-41
2022/11/18 11:59:33;;;;;;;11.18;6.17;;;;;;;1.30;57.83;98085.58;1751550;80;21547;-42
2022/11/18 12:02:22;;;;;;;10.38;6.50;;;;;;;1.25;57.27;98087.03;1728861;82;21003;-45
2022/11/18 12:04:59;;;;;;;8.88;5.10;;;;;;;1.27;58.36;98088.27;1750922;82;20975;-40
2022/11/18 12:07:32;;;;;;;8.75;6.05;;;;;;;1.30;57.88;98079.94;1748728;82;20976;-42
2022/11/18 12:10:25;;;;;;;10.55;6.47;;;;;;;1.35;57.71;98079.78;1751607;82;20994;-41